sensor_id;sensor_type;location;lat;lon;timestamp;pressure;altitude;pressure_sealevel;temperature;humidity
23281;BME280;11809;56.390;-3.266;2023-04-05T00:02:26;101369.53;;;16.91;51.48
23281;BME280;11809;56.390;-3.266;2023-04-05T00:04:56;101374.84;;;16.91;51.75
23281;BME280;11809;56.390;-3.266;2023-04-05T00:07:23;101370.66;;;16.87;51.85
23281;BME280;11809;56.390;-3.266;2023-04-05T00:09:52;101369.84;;;16.85;51.68
23281;BME280;11809;56.390;-3.266;2023-04-05T00:12:19;101368.31;;;16.81;51.83
23281;BME280;11809;56.390;-3.266;2023-04-05T00:14:46;101365.72;;;16.79;52.02
23281;BME280;11809;56.390;-3.266;2023-04-05T00:17:14;101359.59;;;16.79;51.83
23281;BME280;11809;56.390;-3.266;2023-04-05T00:19:41;101354.44;;;16.76;52.13
23281;BME280;11809;56.390;-3.266;2023-04-05T00:22:08;101352.72;;;16.75;52.04
23281;BME280;11809;56.390;-3.266;2023-04-05T00:24:37;101354.59;;;16.73;52.01
23281;BME280;11809;56.390;-3.266;2023-04-05T00:27:09;101346.72;;;16.71;51.93
23281;BME280;11809;56.390;-3.266;2023-04-05T00:29:36;101352.03;;;16.71;51.91
23281;BME280;11809;56.390;-3.266;2023-04-05T00:32:03;101351.19;;;16.71;52.06
23281;BME280;11809;56.390;-3.266;2023-04-05T00:34:30;101349.56;;;16.68;52.12
23281;BME280;11809;56.390;-3.266;2023-04-05T00:36:59;101346.19;;;16.65;52.16
23281;BME280;11809;56.390;-3.266;2023-04-05T00:39:26;101339.09;;;16.65;52.05
23281;BME280;11809;56.390;-3.266;2023-04-05T00:41:53;101340.19;;;16.61;52.31
23281;BME280;11809;56.390;-3.266;2023-04-05T00:44:20;101342.94;;;16.60;52.27
23281;BME280;11809;56.390;-3.266;2023-04-05T00:46:47;101335.91;;;16.59;52.42
23281;BME280;11809;56.390;-3.266;2023-04-05T00:49:15;101336.78;;;16.59;52.28
23281;BME280;11809;56.390;-3.266;2023-04-05T00:51:42;101330.69;;;16.57;52.57
23281;BME280;11809;56.390;-3.266;2023-04-05T00:54:10;101321.88;;;16.57;52.83
23281;BME280;11809;56.390;-3.266;2023-04-05T00:56:37;101326.41;;;16.55;52.49
23281;BME280;11809;56.390;-3.266;2023-04-05T00:59:05;101335.25;;;16.55;52.69
23281;BME280;11809;56.390;-3.266;2023-04-05T01:01:33;101331.78;;;16.53;52.78
23281;BME280;11809;56.390;-3.266;2023-04-05T01:04:04;101329.19;;;16.52;52.80
23281;BME280;11809;56.390;-3.266;2023-04-05T01:07:12;101325.63;;;16.53;52.62
23281;BME280;11809;56.390;-3.266;2023-04-05T01:09:55;101322.16;;;16.51;52.71
23281;BME280;11809;56.390;-3.266;2023-04-05T01:12:25;101322.16;;;16.51;52.84
23281;BME280;11809;56.390;-3.266;2023-04-05T01:14:53;101315.88;;;16.53;52.99
23281;BME280;11809;56.390;-3.266;2023-04-05T01:17:22;101311.44;;;16.54;52.95
23281;BME280;11809;56.390;-3.266;2023-04-05T01:19:52;101308.91;;;16.51;52.84
23281;BME280;11809;56.390;-3.266;2023-04-05T01:30:51;101298.38;;;16.49;52.98
23281;BME280;11809;56.390;-3.266;2023-04-05T01:36:16;101291.13;;;16.53;53.19
23281;BME280;11809;56.390;-3.266;2023-04-05T01:38:48;101285.88;;;16.51;53.06
23281;BME280;11809;56.390;-3.266;2023-04-05T01:41:15;101285.03;;;16.51;53.36
23281;BME280;11809;56.390;-3.266;2023-04-05T01:43:42;101276.06;;;16.53;53.28
23281;BME280;11809;56.390;-3.266;2023-04-05T01:46:09;101273.53;;;16.50;53.40
23281;BME280;11809;56.390;-3.266;2023-04-05T01:48:36;101272.63;;;16.51;53.43
23281;BME280;11809;56.390;-3.266;2023-04-05T01:51:03;101264.66;;;16.51;53.23
23281;BME280;11809;56.390;-3.266;2023-04-05T01:53:30;101265.59;;;16.50;53.38
23281;BME280;11809;56.390;-3.266;2023-04-05T01:56:00;101256.78;;;16.50;53.25
23281;BME280;11809;56.390;-3.266;2023-04-05T01:58:28;101262.09;;;16.50;53.59
23281;BME280;11809;56.390;-3.266;2023-04-05T02:00:55;101258.50;;;16.51;53.51
23281;BME280;11809;56.390;-3.266;2023-04-05T02:03:23;101256.78;;;16.50;53.53
23281;BME280;11809;56.390;-3.266;2023-04-05T02:05:50;101246.19;;;16.50;53.47
23281;BME280;11809;56.390;-3.266;2023-04-05T02:08:17;101242.56;;;16.51;53.54
23281;BME280;11809;56.390;-3.266;2023-04-05T02:10:44;101242.50;;;16.52;53.63
23281;BME280;11809;56.390;-3.266;2023-04-05T02:13:11;101244.16;;;16.55;53.66
23281;BME280;11809;56.390;-3.266;2023-04-05T02:15:39;101246.81;;;16.55;53.66
23281;BME280;11809;56.390;-3.266;2023-04-05T02:18:06;101239.72;;;16.55;53.52
23281;BME280;11809;56.390;-3.266;2023-04-05T02:20:35;101235.25;;;16.56;53.71
23281;BME280;11809;56.390;-3.266;2023-04-05T02:23:02;101240.53;;;16.56;53.69
23281;BME280;11809;56.390;-3.266;2023-04-05T02:25:29;101233.53;;;16.55;53.75
23281;BME280;11809;56.390;-3.266;2023-04-05T02:27:56;101232.53;;;16.57;53.67
23281;BME280;11809;56.390;-3.266;2023-04-05T02:30:23;101228.91;;;16.58;53.65
23281;BME280;11809;56.390;-3.266;2023-04-05T02:32:50;101226.25;;;16.58;53.60
23281;BME280;11809;56.390;-3.266;2023-04-05T02:35:17;101226.25;;;16.58;53.73
23281;BME280;11809;56.390;-3.266;2023-04-05T02:37:44;101217.47;;;16.58;53.62
23281;BME280;11809;56.390;-3.266;2023-04-05T02:40:12;101222.78;;;16.58;53.73
23281;BME280;11809;56.390;-3.266;2023-04-05T02:42:40;101209.50;;;16.58;53.50
23281;BME280;11809;56.390;-3.266;2023-04-05T02:45:08;101205.72;;;16.62;53.56
23281;BME280;11809;56.390;-3.266;2023-04-05T02:47:35;101199.66;;;16.60;53.94
23281;BME280;11809;56.390;-3.266;2023-04-05T02:50:02;101196.03;;;16.61;53.88
23281;BME280;11809;56.390;-3.266;2023-04-05T02:52:30;101193.47;;;16.59;53.88
23281;BME280;11809;56.390;-3.266;2023-04-05T02:54:57;101198.69;;;16.61;53.76
23281;BME280;11809;56.390;-3.266;2023-04-05T02:57:25;101188.94;;;16.61;53.75
23281;BME280;11809;56.390;-3.266;2023-04-05T02:59:52;101190.72;;;16.61;53.89
23281;BME280;11809;56.390;-3.266;2023-04-05T03:02:19;101181.84;;;16.62;53.91
23281;BME280;11809;56.390;-3.266;2023-04-05T03:04:46;101187.13;;;16.62;53.99
23281;BME280;11809;56.390;-3.266;2023-04-05T03:07:13;101184.31;;;16.65;53.75
23281;BME280;11809;56.390;-3.266;2023-04-05T03:09:44;101179.94;;;16.64;53.87
23281;BME280;11809;56.390;-3.266;2023-04-05T03:12:12;101172.78;;;16.66;53.84
23281;BME280;11809;56.390;-3.266;2023-04-05T03:14:39;101171.81;;;16.67;53.74
23281;BME280;11809;56.390;-3.266;2023-04-05T03:17:07;101170.03;;;16.67;53.80
23281;BME280;11809;56.390;-3.266;2023-04-05T03:19:34;101166.44;;;16.68;53.79
23281;BME280;11809;56.390;-3.266;2023-04-05T03:22:01;101160.09;;;16.71;53.57
23281;BME280;11809;56.390;-3.266;2023-04-05T03:24:28;101154.78;;;16.71;53.69
23281;BME280;11809;56.390;-3.266;2023-04-05T03:26:55;101151.16;;;16.72;53.65
23281;BME280;11809;56.390;-3.266;2023-04-05T03:29:22;101142.28;;;16.73;53.65
23281;BME280;11809;56.390;-3.266;2023-04-05T03:31:49;101143.22;;;16.72;53.73
23281;BME280;11809;56.390;-3.266;2023-04-05T03:34:16;101135.34;;;16.70;53.88
23281;BME280;11809;56.390;-3.266;2023-04-05T03:36:43;101133.38;;;16.74;53.80
23281;BME280;11809;56.390;-3.266;2023-04-05T03:39:12;101136.03;;;16.74;53.79
23281;BME280;11809;56.390;-3.266;2023-04-05T03:41:39;101128.06;;;16.74;53.86
23281;BME280;11809;56.390;-3.266;2023-04-05T03:44:07;101130.72;;;16.74;53.85
23281;BME280;11809;56.390;-3.266;2023-04-05T03:46:34;101125.31;;;16.75;53.79
23281;BME280;11809;56.390;-3.266;2023-04-05T03:49:04;101130.53;;;16.77;53.53
23281;BME280;11809;56.390;-3.266;2023-04-05T03:51:32;101124.19;;;16.79;53.66
23281;BME280;11809;56.390;-3.266;2023-04-05T03:53:59;101125.91;;;16.80;53.64
23281;BME280;11809;56.390;-3.266;2023-04-05T03:56:26;101116.13;;;16.81;53.60
23281;BME280;11809;56.390;-3.266;2023-04-05T03:58:53;101125.78;;;16.82;53.65
23281;BME280;11809;56.390;-3.266;2023-04-05T04:01:20;101115.09;;;16.83;53.87
23281;BME280;11809;56.390;-3.266;2023-04-05T04:03:48;101114.19;;;16.84;53.78
23281;BME280;11809;56.390;-3.266;2023-04-05T04:06:15;101114.25;;;16.83;53.98
23281;BME280;11809;56.390;-3.266;2023-04-05T04:08:45;101114.19;;;16.84;53.83
23281;BME280;11809;56.390;-3.266;2023-04-05T04:11:12;101115.00;;;16.85;53.95
23281;BME280;11809;56.390;-3.266;2023-04-05T04:13:39;101113.31;;;16.84;54.09
23281;BME280;11809;56.390;-3.266;2023-04-05T04:16:06;101109.69;;;16.85;53.93
23281;BME280;11809;56.390;-3.266;2023-04-05T04:18:33;101106.22;;;16.84;54.07
23281;BME280;11809;56.390;-3.266;2023-04-05T04:21:02;101106.09;;;16.86;53.90
23281;BME280;11809;56.390;-3.266;2023-04-05T04:23:33;101105.94;;;16.89;53.95
23281;BME280;11809;56.390;-3.266;2023-04-05T04:26:00;101104.22;;;16.88;53.90
23281;BME280;11809;56.390;-3.266;2023-04-05T04:28:28;101100.44;;;16.92;53.52
23281;BME280;11809;56.390;-3.266;2023-04-05T04:30:55;101095.13;;;16.92;53.25
23281;BME280;11809;56.390;-3.266;2023-04-05T04:33:22;101098.84;;;17.04;53.81
23281;BME280;11809;56.390;-3.266;2023-04-05T04:35:49;101093.84;;;17.13;53.68
23281;BME280;11809;56.390;-3.266;2023-04-05T04:38:20;101082.84;;;17.19;53.66
23281;BME280;11809;56.390;-3.266;2023-04-05T04:40:47;101087.78;;;17.25;53.70
23281;BME280;11809;56.390;-3.266;2023-04-05T04:43:16;101077.91;;;17.27;53.62
23281;BME280;11809;56.390;-3.266;2023-04-05T04:45:45;101081.34;;;17.29;53.55
23281;BME280;11809;56.390;-3.266;2023-04-05T04:48:14;101098.59;;;17.22;54.50
23281;BME280;11809;56.390;-3.266;2023-04-05T04:50:43;101090.34;;;17.13;54.99
23281;BME280;11809;56.390;-3.266;2023-04-05T04:53:11;101086.81;;;17.12;54.88
23281;BME280;11809;56.390;-3.266;2023-04-05T04:55:39;101081.69;;;17.09;55.39
23281;BME280;11809;56.390;-3.266;2023-04-05T04:58:10;101088.63;;;17.12;55.40
23281;BME280;11809;56.390;-3.266;2023-04-05T05:00:39;101085.09;;;17.11;55.30
23281;BME280;11809;56.390;-3.266;2023-04-05T05:03:07;101081.50;;;17.12;55.35
23281;BME280;11809;56.390;-3.266;2023-04-05T05:05:34;101088.53;;;17.13;55.44
23281;BME280;11809;56.390;-3.266;2023-04-05T05:08:01;101086.63;;;17.15;55.80
23281;BME280;11809;56.390;-3.266;2023-04-05T05:10:28;101087.31;;;17.19;55.84
23281;BME280;11809;56.390;-3.266;2023-04-05T05:12:55;101077.44;;;17.21;55.76
23281;BME280;11809;56.390;-3.266;2023-04-05T05:15:22;101080.97;;;17.21;55.65
23281;BME280;11809;56.390;-3.266;2023-04-05T05:17:49;101079.63;;;17.28;55.38
23281;BME280;11809;56.390;-3.266;2023-04-05T05:20:19;101079.16;;;17.36;55.29
23281;BME280;11809;56.390;-3.266;2023-04-05T05:22:47;101079.66;;;17.42;54.95
23281;BME280;11809;56.390;-3.266;2023-04-05T05:25:14;101075.78;;;17.48;54.86
23281;BME280;11809;56.390;-3.266;2023-04-05T05:27:41;101081.56;;;17.54;54.85
23281;BME280;11809;56.390;-3.266;2023-04-05T05:30:08;101071.69;;;17.56;54.90
23281;BME280;11809;56.390;-3.266;2023-04-05T05:32:35;101073.22;;;17.61;54.84
23281;BME280;11809;56.390;-3.266;2023-04-05T05:35:03;101073.03;;;17.64;54.61
23281;BME280;11809;56.390;-3.266;2023-04-05T05:37:31;101065.81;;;17.66;54.66
23281;BME280;11809;56.390;-3.266;2023-04-05T05:39:58;101073.78;;;17.66;54.53
23281;BME280;11809;56.390;-3.266;2023-04-05T05:42:25;101066.69;;;17.66;54.22
23281;BME280;11809;56.390;-3.266;2023-04-05T05:44:53;101062.03;;;17.70;54.49
23281;BME280;11809;56.390;-3.266;2023-04-05T05:47:20;101067.13;;;17.73;54.33
23281;BME280;11809;56.390;-3.266;2023-04-05T05:49:47;101046.66;;;17.75;54.15
23281;BME280;11809;56.390;-3.266;2023-04-05T05:52:15;101041.03;;;17.79;54.14
23281;BME280;11809;56.390;-3.266;2023-04-05T05:54:42;101041.88;;;17.80;54.08
23281;BME280;11809;56.390;-3.266;2023-04-05T05:57:09;101040.91;;;17.81;53.88
23281;BME280;11809;56.390;-3.266;2023-04-05T05:59:36;101045.09;;;17.85;53.75
23281;BME280;11809;56.390;-3.266;2023-04-05T06:02:03;101037.88;;;17.87;53.87
23281;BME280;11809;56.390;-3.266;2023-04-05T06:04:30;101041.28;;;17.89;53.64
23281;BME280;11809;56.390;-3.266;2023-04-05T06:06:57;101036.75;;;17.91;53.48
23281;BME280;11809;56.390;-3.266;2023-04-05T06:09:25;101036.50;;;17.94;53.49
23281;BME280;11809;56.390;-3.266;2023-04-05T06:11:52;101037.28;;;17.96;53.29
23281;BME280;11809;56.390;-3.266;2023-04-05T06:14:23;101033.66;;;17.97;53.29
23281;BME280;11809;56.390;-3.266;2023-04-05T06:16:51;101033.47;;;18.00;53.35
23281;BME280;11809;56.390;-3.266;2023-04-05T06:19:18;101036.88;;;18.02;52.98
23281;BME280;11809;56.390;-3.266;2023-04-05T06:21:45;101031.38;;;18.05;53.06
23281;BME280;11809;56.390;-3.266;2023-04-05T06:24:12;101027.75;;;18.06;52.94
23281;BME280;11809;56.390;-3.266;2023-04-05T06:26:39;101025.84;;;18.08;52.81
23281;BME280;11809;56.390;-3.266;2023-04-05T06:29:06;101024.00;;;17.96;51.43
23281;BME280;11809;56.390;-3.266;2023-04-05T06:31:34;101027.84;;;17.64;50.91
23281;BME280;11809;56.390;-3.266;2023-04-05T06:34:02;101025.84;;;17.39;51.34
23281;BME280;11809;56.390;-3.266;2023-04-05T06:36:30;101023.47;;;17.34;51.71
23281;BME280;11809;56.390;-3.266;2023-04-05T06:39:00;101028.44;;;17.54;51.93
23281;BME280;11809;56.390;-3.266;2023-04-05T06:41:27;101020.53;;;17.67;51.82
23281;BME280;11809;56.390;-3.266;2023-04-05T06:43:54;101017.41;;;17.75;51.88
23281;BME280;11809;56.390;-3.266;2023-04-05T06:46:22;101019.84;;;17.78;51.95
23281;BME280;11809;56.390;-3.266;2023-04-05T06:48:50;101019.66;;;17.81;52.45
23281;BME280;11809;56.390;-3.266;2023-04-05T06:51:18;101019.38;;;17.85;52.23
23281;BME280;11809;56.390;-3.266;2023-04-05T06:53:46;101030.66;;;17.89;52.08
23281;BME280;11809;56.390;-3.266;2023-04-05T06:56:13;101023.53;;;17.89;52.09
23281;BME280;11809;56.390;-3.266;2023-04-05T06:58:40;101028.75;;;17.91;52.25
23281;BME280;11809;56.390;-3.266;2023-04-05T07:01:07;101027.78;;;17.92;52.40
23281;BME280;11809;56.390;-3.266;2023-04-05T07:03:34;101019.81;;;17.92;52.28
23281;BME280;11809;56.390;-3.266;2023-04-05T07:06:02;101017.06;;;17.93;52.27
23281;BME280;11809;56.390;-3.266;2023-04-05T07:08:31;101018.69;;;17.96;52.25
23281;BME280;11809;56.390;-3.266;2023-04-05T07:10:58;101015.16;;;17.95;52.34
23281;BME280;11809;56.390;-3.266;2023-04-05T07:13:25;101012.38;;;17.97;52.44
23281;BME280;11809;56.390;-3.266;2023-04-05T07:15:59;101008.78;;;17.98;52.28
23281;BME280;11809;56.390;-3.266;2023-04-05T07:18:27;101004.41;;;17.97;51.98
23281;BME280;11809;56.390;-3.266;2023-04-05T07:20:57;101014.97;;;17.98;52.15
23281;BME280;11809;56.390;-3.266;2023-04-05T07:23:28;101015.81;;;17.99;52.10
23281;BME280;11809;56.390;-3.266;2023-04-05T07:26:00;101012.19;;;18.00;52.10
23281;BME280;11809;56.390;-3.266;2023-04-05T07:28:31;101012.19;;;18.00;52.29
23281;BME280;11809;56.390;-3.266;2023-04-05T07:30:59;101009.47;;;18.01;52.24
23281;BME280;11809;56.390;-3.266;2023-04-05T07:33:27;101012.84;;;18.03;52.04
23281;BME280;11809;56.390;-3.266;2023-04-05T07:35:54;100997.84;;;18.02;52.21
23281;BME280;11809;56.390;-3.266;2023-04-05T07:38:23;100997.75;;;18.04;52.16
23281;BME280;11809;56.390;-3.266;2023-04-05T07:40:50;100998.59;;;18.04;52.27
23281;BME280;11809;56.390;-3.266;2023-04-05T07:43:18;100996.78;;;18.05;52.23
23281;BME280;11809;56.390;-3.266;2023-04-05T07:45:45;101002.97;;;18.05;52.23
23281;BME280;11809;56.390;-3.266;2023-04-05T07:48:12;101002.88;;;18.07;52.17
23281;BME280;11809;56.390;-3.266;2023-04-05T07:50:39;100998.50;;;18.06;52.22
23281;BME280;11809;56.390;-3.266;2023-04-05T07:53:08;101002.88;;;18.07;52.16
23281;BME280;11809;56.390;-3.266;2023-04-05T07:55:38;100998.50;;;18.06;52.26
23281;BME280;11809;56.390;-3.266;2023-04-05T07:58:05;101004.56;;;18.08;52.34
23281;BME280;11809;56.390;-3.266;2023-04-05T08:00:32;100991.38;;;18.06;52.39
23281;BME280;11809;56.390;-3.266;2023-04-05T08:03:00;100995.66;;;18.09;52.36
23281;BME280;11809;56.390;-3.266;2023-04-05T08:05:28;100994.69;;;18.10;52.13
23281;BME280;11809;56.390;-3.266;2023-04-05T08:07:55;100998.31;;;18.09;52.18
23281;BME280;11809;56.390;-3.266;2023-04-05T08:10:24;100995.53;;;18.10;52.19
23281;BME280;11809;56.390;-3.266;2023-04-05T08:12:52;100989.34;;;18.10;52.41
23281;BME280;11809;56.390;-3.266;2023-04-05T08:15:19;100986.69;;;18.10;52.41
23281;BME280;11809;56.390;-3.266;2023-04-05T08:17:46;100989.28;;;18.11;52.27
23281;BME280;11809;56.390;-3.266;2023-04-05T08:20:14;100989.28;;;18.11;52.29
23281;BME280;11809;56.390;-3.266;2023-04-05T08:22:41;100980.31;;;18.12;52.11
23281;BME280;11809;56.390;-3.266;2023-04-05T08:25:09;100989.16;;;18.13;52.32
23281;BME280;11809;56.390;-3.266;2023-04-05T08:27:36;100981.19;;;18.13;52.12
23281;BME280;11809;56.390;-3.266;2023-04-05T08:30:04;100984.69;;;18.13;52.28
23281;BME280;11809;56.390;-3.266;2023-04-05T08:32:32;100982.78;;;18.15;52.23
23281;BME280;11809;56.390;-3.266;2023-04-05T08:35:00;100972.25;;;18.14;52.26
23281;BME280;11809;56.390;-3.266;2023-04-05T08:37:27;100983.75;;;18.14;52.02
23281;BME280;11809;56.390;-3.266;2023-04-05T08:39:54;100977.47;;;18.15;52.17
23281;BME280;11809;56.390;-3.266;2023-04-05T08:42:51;100980.13;;;18.15;52.29
23281;BME280;11809;56.390;-3.266;2023-04-05T08:45:19;100973.13;;;18.14;52.24
23281;BME280;11809;56.390;-3.266;2023-04-05T08:47:48;100965.97;;;18.15;52.22
23281;BME280;11809;56.390;-3.266;2023-04-05T08:50:18;100965.97;;;18.15;52.13
23281;BME280;11809;56.390;-3.266;2023-04-05T08:52:45;100970.34;;;18.16;52.10
23281;BME280;11809;56.390;-3.266;2023-04-05T08:55:15;100965.03;;;18.16;52.05
23281;BME280;11809;56.390;-3.266;2023-04-05T08:57:47;100974.72;;;18.17;52.21
23281;BME280;11809;56.390;-3.266;2023-04-05T09:00:17;100968.53;;;18.16;52.27
23281;BME280;11809;56.390;-3.266;2023-04-05T09:02:47;100969.41;;;18.17;52.15
23281;BME280;11809;56.390;-3.266;2023-04-05T09:05:17;100970.34;;;18.16;52.26
23281;BME280;11809;56.390;-3.266;2023-04-05T09:07:46;100961.41;;;18.17;52.43
23281;BME280;11809;56.390;-3.266;2023-04-05T09:10:14;100967.59;;;18.17;52.26
23281;BME280;11809;56.390;-3.266;2023-04-05T09:12:44;100971.09;;;18.18;52.15
23281;BME280;11809;56.390;-3.266;2023-04-05T09:15:13;100975.47;;;18.19;52.17
23281;BME280;11809;56.390;-3.266;2023-04-05T09:17:42;100979.94;;;18.18;52.11
23281;BME280;11809;56.390;-3.266;2023-04-05T09:20:09;100976.31;;;18.20;52.27
23281;BME280;11809;56.390;-3.266;2023-04-05T09:22:43;100972.06;;;18.17;52.18
23281;BME280;11809;56.390;-3.266;2023-04-05T09:28:10;100979.06;;;18.18;52.17
23281;BME280;11809;56.390;-3.266;2023-04-05T09:30:38;100976.41;;;18.18;52.21
23281;BME280;11809;56.390;-3.266;2023-04-05T09:33:14;100966.75;;;18.17;52.48
23281;BME280;11809;56.390;-3.266;2023-04-05T09:35:48;100972.91;;;18.17;52.22
23281;BME280;11809;56.390;-3.266;2023-04-05T09:38:17;100969.41;;;18.17;52.08
23281;BME280;11809;56.390;-3.266;2023-04-05T09:40:46;100970.34;;;18.16;52.20
23281;BME280;11809;56.390;-3.266;2023-04-05T09:43:40;100970.25;;;18.17;52.04
23281;BME280;11809;56.390;-3.266;2023-04-05T09:46:35;100964.06;;;18.17;52.00
23281;BME280;11809;56.390;-3.266;2023-04-05T09:49:05;100969.47;;;18.15;52.33
23281;BME280;11809;56.390;-3.266;2023-04-05T09:51:36;100965.13;;;18.14;52.34
23281;BME280;11809;56.390;-3.266;2023-04-05T09:54:09;100972.13;;;18.15;52.13
23281;BME280;11809;56.390;-3.266;2023-04-05T09:56:40;100967.88;;;18.13;52.20
23281;BME280;11809;56.390;-3.266;2023-04-05T09:59:19;100974.06;;;18.13;52.34
23281;BME280;11809;56.390;-3.266;2023-04-05T10:01:50;100974.91;;;18.14;52.32
23281;BME280;11809;56.390;-3.266;2023-04-05T10:04:18;100973.94;;;18.15;52.23
23281;BME280;11809;56.390;-3.266;2023-04-05T10:06:45;100973.00;;;18.16;52.19
23281;BME280;11809;56.390;-3.266;2023-04-05T10:09:12;100972.25;;;18.14;52.36
23281;BME280;11809;56.390;-3.266;2023-04-05T10:11:41;100971.41;;;18.13;52.21
23281;BME280;11809;56.390;-3.266;2023-04-05T10:14:10;100974.91;;;18.14;52.10
23281;BME280;11809;56.390;-3.266;2023-04-05T10:16:55;100968.84;;;18.12;52.16
23281;BME280;11809;56.390;-3.266;2023-04-05T10:22:30;100970.84;;;18.08;52.22
23281;BME280;11809;56.390;-3.266;2023-04-05T10:25:04;100969.91;;;18.09;52.26
23281;BME280;11809;56.390;-3.266;2023-04-05T10:27:46;100970.75;;;18.10;52.23
23281;BME280;11809;56.390;-3.266;2023-04-05T10:30:15;100967.25;;;18.09;52.40
23281;BME280;11809;56.390;-3.266;2023-04-05T10:33:07;100962.69;;;18.11;52.36
23281;BME280;11809;56.390;-3.266;2023-04-05T10:35:59;100958.22;;;18.12;52.12
23281;BME280;11809;56.390;-3.266;2023-04-05T10:41:20;100958.28;;;18.10;52.34
23281;BME280;11809;56.390;-3.266;2023-04-05T10:43:48;100959.28;;;18.09;52.30
23281;BME280;11809;56.390;-3.266;2023-04-05T10:46:19;100955.75;;;18.09;52.29
23281;BME280;11809;56.390;-3.266;2023-04-05T10:48:53;100954.03;;;18.08;52.28
23281;BME280;11809;56.390;-3.266;2023-04-05T10:51:25;100942.66;;;18.06;52.06
23281;BME280;11809;56.390;-3.266;2023-04-05T10:53:53;100949.88;;;18.04;51.96
23281;BME280;11809;56.390;-3.266;2023-04-05T10:56:22;100949.03;;;18.03;52.23
23281;BME280;11809;56.390;-3.266;2023-04-05T10:58:52;100949.13;;;18.02;52.14
23281;BME280;11809;56.390;-3.266;2023-04-05T11:01:20;100946.44;;;18.02;52.39
23281;BME280;11809;56.390;-3.266;2023-04-05T11:03:50;100948.16;;;18.03;52.33
23281;BME280;11809;56.390;-3.266;2023-04-05T11:06:23;100953.50;;;18.03;52.38
23281;BME280;11809;56.390;-3.266;2023-04-05T11:08:58;100946.56;;;18.00;52.48
23281;BME280;11809;56.390;-3.266;2023-04-05T11:11:26;100951.03;;;18.00;52.28
23281;BME280;11809;56.390;-3.266;2023-04-05T11:16:46;100949.94;;;17.90;52.79
23281;BME280;11809;56.390;-3.266;2023-04-05T11:19:16;100941.91;;;17.77;52.64
23281;BME280;11809;56.390;-3.266;2023-04-05T11:21:44;100941.38;;;17.72;52.83
23281;BME280;11809;56.390;-3.266;2023-04-05T11:24:13;100942.31;;;17.71;52.99
23281;BME280;11809;56.390;-3.266;2023-04-05T11:29:16;100937.84;;;17.72;53.61
23281;BME280;11809;56.390;-3.266;2023-04-05T11:31:57;100934.22;;;17.73;53.73
23281;BME280;11809;56.390;-3.266;2023-04-05T11:34:25;100937.84;;;17.72;53.61
23281;BME280;11809;56.390;-3.266;2023-04-05T11:36:52;100934.31;;;17.71;53.50
23281;BME280;11809;56.390;-3.266;2023-04-05T11:42:02;100920.38;;;17.68;53.51
23281;BME280;11809;56.390;-3.266;2023-04-05T11:44:47;100928.53;;;17.65;53.55
23281;BME280;11809;56.390;-3.266;2023-04-05T11:47:18;100920.56;;;17.65;53.67
23281;BME280;11809;56.390;-3.266;2023-04-05T11:49:50;100928.53;;;17.65;53.88
23281;BME280;11809;56.390;-3.266;2023-04-05T11:52:19;100923.16;;;17.66;53.65
23281;BME280;11809;56.390;-3.266;2023-04-05T11:54:47;100923.34;;;17.63;53.99
23281;BME280;11809;56.390;-3.266;2023-04-05T11:57:21;100915.25;;;17.65;54.05
23281;BME280;11809;56.390;-3.266;2023-04-05T11:59:50;100920.13;;;17.58;54.10
23281;BME280;11809;56.390;-3.266;2023-04-05T12:02:18;100918.31;;;17.44;54.53
23281;BME280;11809;56.390;-3.266;2023-04-05T12:04:55;100917.09;;;17.36;54.62
23281;BME280;11809;56.390;-3.266;2023-04-05T12:07:27;100914.63;;;17.33;54.89
23281;BME280;11809;56.390;-3.266;2023-04-05T12:10:02;100910.78;;;17.24;54.95
23281;BME280;11809;56.390;-3.266;2023-04-05T12:12:38;100911.91;;;17.20;55.07
23281;BME280;11809;56.390;-3.266;2023-04-05T12:15:10;100913.25;;;17.13;55.26
23281;BME280;11809;56.390;-3.266;2023-04-05T12:17:47;100910.88;;;17.09;55.41
23281;BME280;11809;56.390;-3.266;2023-04-05T12:20:24;100909.56;;;17.02;55.64
23281;BME280;11809;56.390;-3.266;2023-04-05T12:22:53;100904.75;;;16.94;55.85
23281;BME280;11809;56.390;-3.266;2023-04-05T12:25:21;100893.56;;;16.89;55.81
23281;BME280;11809;56.390;-3.266;2023-04-05T12:27:49;100897.31;;;16.85;55.93
23281;BME280;11809;56.390;-3.266;2023-04-05T12:30:21;100893.94;;;16.83;55.91
23281;BME280;11809;56.390;-3.266;2023-04-05T12:32:55;100892.50;;;16.77;56.06
23281;BME280;11809;56.390;-3.266;2023-04-05T12:35:27;100894.50;;;16.74;56.32
23281;BME280;11809;56.390;-3.266;2023-04-05T12:38:03;100895.44;;;16.73;56.29
23281;BME280;11809;56.390;-3.266;2023-04-05T12:40:33;100897.16;;;16.74;56.27
23281;BME280;11809;56.390;-3.266;2023-04-05T12:43:02;100902.53;;;16.72;56.30
23281;BME280;11809;56.390;-3.266;2023-04-05T12:45:30;100901.69;;;16.72;56.31
23281;BME280;11809;56.390;-3.266;2023-04-05T12:48:08;100901.03;;;16.68;56.42
23281;BME280;11809;56.390;-3.266;2023-04-05T12:50:41;100899.16;;;16.70;56.50
23281;BME280;11809;56.390;-3.266;2023-04-05T12:53:15;100891.19;;;16.84;56.31
23281;BME280;11809;56.390;-3.266;2023-04-05T12:55:53;100888.91;;;16.92;56.34
23281;BME280;11809;56.390;-3.266;2023-04-05T12:58:36;100885.78;;;17.00;56.21
23281;BME280;11809;56.390;-3.266;2023-04-05T13:01:04;100885.19;;;17.09;55.97
23281;BME280;11809;56.390;-3.266;2023-04-05T13:03:31;100883.06;;;17.14;55.92
23281;BME280;11809;56.390;-3.266;2023-04-05T13:06:02;100886.28;;;17.19;55.84
23281;BME280;11809;56.390;-3.266;2023-04-05T13:08:29;100887.94;;;17.22;55.74
23281;BME280;11809;56.390;-3.266;2023-04-05T13:10:56;100887.44;;;17.29;55.92
23281;BME280;11809;56.390;-3.266;2023-04-05T13:13:24;100885.53;;;17.31;55.89
23281;BME280;11809;56.390;-3.266;2023-04-05T13:15:51;100884.66;;;17.31;56.29
23281;BME280;11809;56.390;-3.266;2023-04-05T13:18:19;100890.09;;;17.29;56.23
23281;BME280;11809;56.390;-3.266;2023-04-05T13:20:46;100883.81;;;17.30;56.13